createdAt,value
2022-12-03T00:01:01.299Z,99856.28
2022-12-03T00:04:02.974Z,99855.13
2022-12-03T00:07:04.533Z,99850.91
2022-12-03T00:10:06.943Z,99842.59
2022-12-03T00:13:08.282Z,99858.78
2022-12-03T00:16:09.803Z,99854.63
2022-12-03T00:19:11.409Z,99851.72
2022-12-03T00:22:13.000Z,99854.81
2022-12-03T00:25:14.631Z,99856.59
2022-12-03T00:28:16.051Z,99851.00
2022-12-03T00:31:17.618Z,99856.38
2022-12-03T00:34:19.139Z,99847.78
2022-12-03T00:37:20.619Z,99851.72
2022-12-03T00:40:22.027Z,99845.59
2022-12-03T00:43:23.464Z,99851.38
2022-12-03T00:46:25.554Z,99846.63
2022-12-03T00:49:27.209Z,99851.81
2022-12-03T00:52:28.607Z,99846.59
2022-12-03T00:55:30.026Z,99848.63
2022-12-03T00:58:31.552Z,99842.78
2022-12-03T01:01:33.018Z,99849.78
2022-12-03T01:04:34.817Z,99857.75
2022-12-03T01:07:36.426Z,99855.84
2022-12-03T01:10:37.902Z,99857.81
2022-12-03T01:13:39.345Z,99859.09
2022-12-03T01:16:41.364Z,99861.94
2022-12-03T01:19:48.029Z,99857.81
2022-12-03T01:22:49.947Z,99863.41
2022-12-03T01:25:51.389Z,99855.13
2022-12-03T01:28:52.836Z,99856.03
2022-12-03T01:32:13.393Z,99855.19
2022-12-03T01:35:14.864Z,99861.84
2022-12-03T01:38:16.289Z,99857.31
2022-12-03T01:41:18.870Z,99857.88
2022-12-03T01:44:27.187Z,99862.19
2022-12-03T01:47:35.338Z,99853.97
2022-12-03T01:50:38.423Z,99859.28
2022-12-03T01:53:40.143Z,99854.19
2022-12-03T01:56:41.604Z,99856.66
2022-12-03T01:59:43.047Z,99850.19
2022-12-03T02:02:45.301Z,99855.94
2022-12-03T02:05:46.795Z,99855.84
2022-12-03T02:08:49.031Z,99849.00
2022-12-03T02:11:50.770Z,99857.50
2022-12-03T02:14:53.665Z,99844.03
2022-12-03T02:17:55.807Z,99855.16
2022-12-03T02:21:21.493Z,99858.66
2022-12-03T02:24:33.084Z,99861.63
2022-12-03T02:27:34.637Z,99866.06
2022-12-03T02:30:36.937Z,99859.09
2022-12-03T02:33:38.406Z,99856.88
2022-12-03T02:36:39.976Z,99852.25
2022-12-03T02:39:46.866Z,99853.25
2022-12-03T02:42:50.948Z,99845.47
2022-12-03T02:45:56.386Z,99845.91
2022-12-03T02:48:58.834Z,99847.13
2022-12-03T02:52:00.265Z,99844.44
2022-12-03T02:55:04.374Z,99852.31
2022-12-03T02:58:06.615Z,99851.91
2022-12-03T03:01:09.206Z,99846.28
2022-12-03T03:04:10.857Z,99853.72
2022-12-03T03:07:12.726Z,99853.97
2022-12-03T03:10:16.344Z,99856.84
2022-12-03T03:13:19.075Z,99855.00
2022-12-03T03:16:20.826Z,99858.03
2022-12-03T03:19:26.095Z,99852.56
2022-12-03T03:22:35.415Z,99851.41
2022-12-03T03:25:38.288Z,99849.66
2022-12-03T03:28:46.610Z,99855.09
2022-12-03T03:31:48.423Z,99852.41
2022-12-03T03:34:50.190Z,99853.75
2022-12-03T03:37:53.635Z,99861.41
2022-12-03T03:40:57.257Z,99857.00
2022-12-03T03:43:58.941Z,99854.00
2022-12-03T03:47:00.597Z,99845.75
2022-12-03T03:50:02.755Z,99850.53
2022-12-03T03:53:05.035Z,99859.00
2022-12-03T03:56:07.471Z,99862.31
2022-12-03T03:59:09.020Z,99853.34
2022-12-03T04:02:19.583Z,99850.19
2022-12-03T04:05:23.177Z,99855.63
2022-12-03T04:08:24.723Z,99856.78
2022-12-03T04:11:44.902Z,99855.59
2022-12-03T04:14:46.411Z,99844.03
2022-12-03T04:18:07.829Z,99845.22
2022-12-03T04:21:39.674Z,99841.59
2022-12-03T04:24:41.111Z,99838.09
2022-12-03T04:28:01.605Z,99820.00
2022-12-03T04:31:25.657Z,99814.53
2022-12-03T04:34:45.801Z,99814.34
2022-12-03T04:37:47.259Z,99817.97
2022-12-03T04:41:00.766Z,99823.38
2022-12-03T04:44:33.174Z,99821.94
2022-12-03T04:47:39.782Z,99820.59
2022-12-03T04:50:41.616Z,99823.22
2022-12-03T04:53:46.182Z,99821.22
2022-12-03T04:56:47.907Z,99822.63
2022-12-03T04:59:49.377Z,99816.06
2022-12-03T05:02:51.013Z,99802.59
2022-12-03T05:05:52.509Z,99806.94
2022-12-03T05:08:53.986Z,99806.00
2022-12-03T05:11:55.440Z,99812.53
2022-12-03T05:14:56.993Z,99810.47
2022-12-03T05:17:58.467Z,99809.00
2022-12-03T05:20:59.882Z,99816.50
2022-12-03T05:24:01.692Z,99817.56
2022-12-03T05:27:03.279Z,99816.19
2022-12-03T05:30:05.369Z,99807.16
2022-12-03T05:33:06.792Z,99802.75
2022-12-03T05:36:09.053Z,99813.19
2022-12-03T05:39:10.516Z,99807.59
2022-12-03T05:42:30.565Z,99806.06
2022-12-03T05:45:37.637Z,99804.59
2022-12-03T05:48:39.053Z,99800.25
2022-12-03T05:51:40.491Z,99801.34
2022-12-03T05:54:42.070Z,99797.63
2022-12-03T05:57:43.743Z,99794.31
2022-12-03T06:00:45.193Z,99798.00
2022-12-03T06:03:46.734Z,99798.19
2022-12-03T06:06:48.269Z,99798.81
2022-12-03T06:09:49.695Z,99807.84
2022-12-03T06:12:51.521Z,99819.47
2022-12-03T06:15:53.012Z,99825.13
2022-12-03T06:18:54.498Z,99820.72
2022-12-03T06:21:55.959Z,99831.22
2022-12-03T06:25:02.055Z,99839.66
2022-12-03T06:28:07.359Z,99840.91
2022-12-03T06:31:08.792Z,99848.16
2022-12-03T06:34:10.318Z,99850.72
2022-12-03T06:37:11.731Z,99853.16
2022-12-03T06:40:13.586Z,99845.34
2022-12-03T06:43:15.303Z,99850.66
2022-12-03T06:46:16.761Z,99844.72
2022-12-03T06:49:18.262Z,99840.81
2022-12-03T06:52:19.794Z,99841.03
2022-12-03T06:55:21.205Z,99856.88
2022-12-03T06:58:22.639Z,99870.03
2022-12-03T07:01:24.635Z,99861.13
2022-12-03T07:04:26.120Z,99862.03
2022-12-03T07:07:27.626Z,99867.00
2022-12-03T07:10:29.215Z,99869.88
2022-12-03T07:13:30.886Z,99873.34
2022-12-03T07:16:32.559Z,99865.44
2022-12-03T07:19:34.056Z,99864.63
2022-12-03T07:22:35.586Z,99859.38
2022-12-03T07:25:37.375Z,99847.09
2022-12-03T07:28:38.786Z,99857.00
2022-12-03T07:31:40.296Z,99851.81
2022-12-03T07:34:41.846Z,99851.81
2022-12-03T07:37:43.267Z,99852.13
2022-12-03T07:40:45.171Z,99854.16
2022-12-03T07:43:46.656Z,99839.47
2022-12-03T07:46:48.229Z,99838.00
2022-12-03T07:49:49.717Z,99827.50
2022-12-03T07:52:51.143Z,99824.19
2022-12-03T07:55:53.008Z,99832.63
2022-12-03T07:58:54.547Z,99820.25
2022-12-03T08:01:56.120Z,99823.00
2022-12-03T08:04:57.641Z,99817.56
2022-12-03T08:07:59.151Z,99817.78
2022-12-03T08:11:01.937Z,99819.72
2022-12-03T08:14:18.605Z,99824.88
2022-12-03T08:17:21.613Z,99822.22
2022-12-03T08:20:31.522Z,99817.22
2022-12-03T08:23:34.521Z,99824.47
2022-12-03T08:26:36.074Z,99820.88
2022-12-03T08:29:37.490Z,99821.38
2022-12-03T08:32:38.892Z,99827.41
2022-12-03T08:35:44.253Z,99829.81
2022-12-03T08:38:50.917Z,99823.03
2022-12-03T08:42:14.977Z,99821.31
2022-12-03T08:45:39.819Z,99820.25
2022-12-03T08:48:47.081Z,99829.03
2022-12-03T08:51:55.979Z,99827.84
2022-12-03T08:54:57.658Z,99830.44
2022-12-03T08:57:59.533Z,99820.25
2022-12-03T09:01:07.106Z,99822.09
2022-12-03T09:04:24.070Z,99822.22
2022-12-03T09:07:25.610Z,99825.78
2022-12-03T09:10:27.109Z,99820.94
2022-12-03T09:13:29.056Z,99820.38
2022-12-03T09:16:30.677Z,99807.69
2022-12-03T09:19:32.435Z,99801.97
2022-12-03T09:22:34.067Z,99802.84
2022-12-03T09:25:35.524Z,99794.94
2022-12-03T09:28:36.950Z,99803.16
2022-12-03T09:31:38.456Z,99803.19
2022-12-03T09:34:40.003Z,99803.72
2022-12-03T09:37:41.419Z,99820.03
2022-12-03T09:40:42.975Z,99811.59
2022-12-03T09:44:03.500Z,99817.09
2022-12-03T09:47:06.428Z,99825.69
2022-12-03T09:50:13.646Z,99816.75
2022-12-03T09:53:18.454Z,99825.38
2022-12-03T09:56:22.724Z,99812.94
2022-12-03T09:59:27.374Z,99808.38
2022-12-03T10:02:30.554Z,99808.97
2022-12-03T10:05:33.216Z,99815.91
2022-12-03T10:08:34.681Z,99812.31
2022-12-03T10:11:36.211Z,99811.13
2022-12-03T10:14:37.643Z,99808.22
2022-12-03T10:17:39.229Z,99797.63
2022-12-03T10:20:40.650Z,99802.09
2022-12-03T10:23:42.090Z,99788.75
2022-12-03T10:26:45.729Z,99781.47
2022-12-03T10:29:58.341Z,99769.88
2022-12-03T10:33:14.347Z,99772.50
2022-12-03T10:36:23.420Z,99765.91
2022-12-03T10:39:24.880Z,99763.88
2022-12-03T10:42:29.295Z,99761.25
2022-12-03T10:45:30.756Z,99760.91
2022-12-03T10:48:32.241Z,99761.00
2022-12-03T10:51:33.919Z,99761.66
2022-12-03T10:54:35.702Z,99754.44
2022-12-03T10:57:40.002Z,99755.94
2022-12-03T11:00:45.256Z,99749.25
2022-12-03T11:03:47.765Z,99742.19
2022-12-03T11:06:50.726Z,99740.56
2022-12-03T11:09:58.821Z,99738.78
2022-12-03T11:13:34.052Z,99732.44
2022-12-03T11:16:41.646Z,99728.69
2022-12-03T11:19:46.520Z,99726.41
2022-12-03T11:22:49.692Z,99723.13
2022-12-03T11:25:51.116Z,99720.94
2022-12-03T11:28:55.178Z,99713.56
2022-12-03T11:31:56.590Z,99704.03
2022-12-03T11:34:58.189Z,99703.25
2022-12-03T11:38:37.993Z,99708.78
2022-12-03T11:41:39.470Z,99706.69
2022-12-03T11:44:40.930Z,99699.34
2022-12-03T11:47:46.914Z,99695.56
2022-12-03T11:50:53.015Z,99693.47
2022-12-03T11:53:57.652Z,99690.16
2022-12-03T11:56:59.109Z,99686.00
2022-12-03T12:00:22.259Z,99677.56
2022-12-03T12:03:28.640Z,99682.69
2022-12-03T12:06:42.496Z,99674.03
2022-12-03T12:09:57.253Z,99670.72
2022-12-03T12:12:58.930Z,99665.22
2022-12-03T12:16:05.325Z,99659.28
2022-12-03T12:19:33.036Z,99656.00
2022-12-03T12:22:34.558Z,99657.25
2022-12-03T12:25:39.082Z,99648.34
2022-12-03T12:28:40.594Z,99648.44
2022-12-03T12:31:42.158Z,99651.09
2022-12-03T12:34:46.389Z,99639.44
2022-12-03T12:37:55.009Z,99641.50
2022-12-03T12:41:07.457Z,99641.69
2022-12-03T12:44:13.977Z,99636.56
2022-12-03T12:47:15.409Z,99621.47
2022-12-03T12:50:18.388Z,99623.72
2022-12-03T12:53:26.183Z,99621.19
2022-12-03T12:56:30.887Z,99626.19
2022-12-03T12:59:32.577Z,99626.88
2022-12-03T13:02:43.129Z,99618.53
2022-12-03T13:05:46.861Z,99616.91
2022-12-03T13:08:50.256Z,99616.34
2022-12-03T13:11:53.697Z,99618.22
2022-12-03T13:14:58.285Z,99621.09
2022-12-03T13:17:59.705Z,99621.50
2022-12-03T13:21:24.546Z,99621.50
2022-12-03T13:24:39.662Z,99618.66
2022-12-03T13:27:41.058Z,99611.50
2022-12-03T13:30:42.594Z,99609.19
2022-12-03T13:33:44.030Z,99613.38
2022-12-03T13:36:50.709Z,99604.44
2022-12-03T13:39:57.803Z,99604.06
2022-12-03T13:42:59.408Z,99601.69
2022-12-03T13:46:01.255Z,99600.66
2022-12-03T13:49:03.184Z,99595.63
2022-12-03T13:52:12.738Z,99607.56
2022-12-03T13:55:31.481Z,99599.69
2022-12-03T13:58:32.879Z,99591.31
2022-12-03T14:01:34.571Z,99590.53
2022-12-03T14:04:36.142Z,99589.91
2022-12-03T14:07:38.760Z,99584.25
2022-12-03T14:10:40.357Z,99578.28
2022-12-03T14:13:41.799Z,99584.81
2022-12-03T14:16:43.305Z,99579.22
2022-12-03T14:19:45.030Z,99580.53
2022-12-03T14:22:46.475Z,99580.25
2022-12-03T14:25:48.002Z,99581.84
2022-12-03T14:28:49.418Z,99584.59
2022-12-03T14:31:50.888Z,99581.75
2022-12-03T14:34:52.395Z,99582.50
2022-12-03T14:37:53.810Z,99582.91
2022-12-03T14:40:55.220Z,99590.44
2022-12-03T14:43:56.621Z,99583.50
2022-12-03T14:46:58.078Z,99588.28
2022-12-03T14:49:59.511Z,99581.47
2022-12-03T14:53:00.926Z,99584.25
2022-12-03T14:56:02.322Z,99589.66
2022-12-03T14:59:03.774Z,99590.53
2022-12-03T15:02:05.699Z,99595.06
2022-12-03T15:05:07.500Z,99596.50
2022-12-03T15:08:09.662Z,99597.16
2022-12-03T15:11:11.771Z,99594.97
2022-12-03T15:14:16.615Z,99594.06
2022-12-03T15:17:25.378Z,99599.06
2022-12-03T15:20:31.367Z,99595.50
2022-12-03T15:23:32.904Z,99590.19
2022-12-03T15:26:34.351Z,99590.22
2022-12-03T15:29:35.892Z,99597.78
2022-12-03T15:32:37.317Z,99591.03
2022-12-03T15:35:41.186Z,99598.88
2022-12-03T15:38:42.615Z,99598.81
2022-12-03T15:41:44.081Z,99599.00
2022-12-03T15:44:45.501Z,99597.16
2022-12-03T15:47:46.942Z,99592.91
2022-12-03T15:50:48.361Z,99596.75
2022-12-03T15:53:49.923Z,99589.66
2022-12-03T15:56:56.865Z,99582.28
2022-12-03T15:59:58.995Z,99581.63
2022-12-03T16:03:00.437Z,99574.94
2022-12-03T16:06:19.533Z,99582.03
2022-12-03T16:09:26.667Z,99582.94
2022-12-03T16:12:29.059Z,99568.22
2022-12-03T16:15:30.536Z,99573.72
2022-12-03T16:18:32.154Z,99578.31
2022-12-03T16:21:34.884Z,99571.53
2022-12-03T16:24:36.329Z,99552.69
2022-12-03T16:27:38.194Z,99559.81
2022-12-03T16:30:39.803Z,99554.66
2022-12-03T16:33:41.306Z,99555.09
2022-12-03T16:36:42.777Z,99553.91
2022-12-03T16:39:44.292Z,99551.44
2022-12-03T16:42:45.803Z,99558.19
2022-12-03T16:45:56.423Z,99556.53
2022-12-03T16:48:58.654Z,99552.97
2022-12-03T16:52:00.078Z,99550.25
2022-12-03T16:55:01.794Z,99545.47
2022-12-03T16:58:03.293Z,99550.34
2022-12-03T17:01:05.144Z,99544.28
2022-12-03T17:04:06.590Z,99550.91
2022-12-03T17:07:08.022Z,99555.69
2022-12-03T17:10:10.092Z,99554.78
2022-12-03T17:13:11.750Z,99551.38
2022-12-03T17:16:13.249Z,99553.25
2022-12-03T17:19:15.109Z,99544.31
2022-12-03T17:22:16.583Z,99542.84
2022-12-03T17:25:18.087Z,99546.84
2022-12-03T17:28:19.529Z,99531.78
2022-12-03T17:31:21.058Z,99532.78
2022-12-03T17:34:22.509Z,99545.53
2022-12-03T17:37:23.937Z,99544.00
2022-12-03T17:40:25.390Z,99550.97
2022-12-03T17:43:26.835Z,99552.22
2022-12-03T17:46:28.641Z,99554.41
2022-12-03T17:49:31.873Z,99547.72
2022-12-03T17:52:33.455Z,99547.09
2022-12-03T17:55:41.277Z,99544.50
2022-12-03T17:58:46.894Z,99554.69
2022-12-03T18:01:50.591Z,99549.03
2022-12-03T18:04:52.049Z,99537.50
2022-12-03T18:07:53.612Z,99539.22
2022-12-03T18:10:55.307Z,99537.94
2022-12-03T18:13:56.787Z,99529.94
2022-12-03T18:16:58.198Z,99526.81
2022-12-03T18:20:00.416Z,99525.03
2022-12-03T18:23:02.190Z,99536.00
2022-12-03T18:26:04.436Z,99517.63
2022-12-03T18:29:06.197Z,99517.44
2022-12-03T18:32:27.182Z,99532.31
2022-12-03T18:35:30.176Z,99532.78
2022-12-03T18:38:33.689Z,99530.81
2022-12-03T18:41:35.713Z,99526.97
2022-12-03T18:44:37.250Z,99522.41
2022-12-03T18:47:38.993Z,99525.28
2022-12-03T18:50:41.043Z,99531.53
2022-12-03T18:53:43.277Z,99525.00
2022-12-03T18:56:44.697Z,99531.06
2022-12-03T18:59:46.422Z,99519.56
2022-12-03T19:03:02.980Z,99510.81
2022-12-03T19:06:05.406Z,99503.13
2022-12-03T19:09:07.202Z,99511.66
2022-12-03T19:12:14.622Z,99506.88
2022-12-03T19:15:16.998Z,99506.25
2022-12-03T19:18:18.441Z,99510.63
2022-12-03T19:21:19.925Z,99516.19
2022-12-03T19:24:25.499Z,99505.22
2022-12-03T19:27:29.746Z,99512.88
2022-12-03T19:30:31.260Z,99508.75
2022-12-03T19:33:33.987Z,99510.72
2022-12-03T19:36:35.416Z,99509.09
2022-12-03T19:39:36.937Z,99508.69
2022-12-03T19:42:39.064Z,99514.47
2022-12-03T19:45:41.250Z,99519.19
2022-12-03T19:48:43.066Z,99527.16
2022-12-03T19:51:44.494Z,99520.81
2022-12-03T19:54:45.947Z,99519.53
2022-12-03T19:57:47.645Z,99522.13
2022-12-03T20:00:49.120Z,99530.59
2022-12-03T20:03:53.169Z,99534.41
2022-12-03T20:06:54.782Z,99526.59
2022-12-03T20:09:56.599Z,99523.94
2022-12-03T20:12:58.295Z,99531.44
2022-12-03T20:16:07.234Z,99526.19
2022-12-03T20:19:12.426Z,99527.72
2022-12-03T20:22:13.845Z,99529.16
2022-12-03T20:25:15.396Z,99521.59
2022-12-03T20:28:16.934Z,99523.38
2022-12-03T20:31:20.728Z,99524.09
2022-12-03T20:34:22.233Z,99517.38
2022-12-03T20:37:23.668Z,99518.63
2022-12-03T20:40:25.244Z,99516.56
2022-12-03T20:43:26.656Z,99511.78
2022-12-03T20:46:30.248Z,99508.03
2022-12-03T20:49:31.791Z,99506.47
2022-12-03T20:52:33.242Z,99502.00
2022-12-03T20:55:34.728Z,99505.25
2022-12-03T20:58:36.543Z,99504.53
2022-12-03T21:01:38.888Z,99499.84
2022-12-03T21:04:40.322Z,99499.72
2022-12-03T21:07:41.865Z,99498.56
2022-12-03T21:10:46.458Z,99500.09
2022-12-03T21:13:48.017Z,99498.34
2022-12-03T21:17:08.032Z,99490.72
2022-12-03T21:20:10.808Z,99489.78
2022-12-03T21:23:12.800Z,99500.53
2022-12-03T21:26:17.520Z,99504.00
2022-12-03T21:29:19.056Z,99497.22
2022-12-03T21:32:20.464Z,99493.41
2022-12-03T21:35:21.933Z,99504.53
2022-12-03T21:38:23.850Z,99509.91
2022-12-03T21:41:25.703Z,99500.19
2022-12-03T21:44:27.432Z,99504.00
2022-12-03T21:47:33.445Z,99498.78
2022-12-03T21:50:38.279Z,99504.88
2022-12-03T21:53:43.498Z,99508.31
2022-12-03T21:56:45.168Z,99505.31
2022-12-03T21:59:46.636Z,99491.78
2022-12-03T22:02:48.107Z,99510.44
2022-12-03T22:05:50.078Z,99504.63
2022-12-03T22:08:51.510Z,99494.63
2022-12-03T22:11:55.322Z,99499.06
2022-12-03T22:14:57.296Z,99485.25
2022-12-03T22:17:58.809Z,99478.16
2022-12-03T22:21:08.598Z,99477.53
2022-12-03T22:24:10.409Z,99466.56
2022-12-03T22:27:12.922Z,99479.47
2022-12-03T22:30:14.538Z,99475.25
2022-12-03T22:33:16.080Z,99475.03
2022-12-03T22:36:21.401Z,99466.78
2022-12-03T22:39:23.407Z,99471.53
2022-12-03T22:42:24.835Z,99467.69
2022-12-03T22:45:26.290Z,99469.38
2022-12-03T22:48:28.223Z,99468.66
2022-12-03T22:51:30.239Z,99473.59
2022-12-03T22:54:31.750Z,99476.56
2022-12-03T22:57:33.240Z,99472.75
2022-12-03T23:00:38.734Z,99469.78
2022-12-03T23:03:40.249Z,99468.16
2022-12-03T23:06:43.419Z,99469.41
2022-12-03T23:09:44.851Z,99481.13
2022-12-03T23:12:46.328Z,99490.75
2022-12-03T23:15:50.805Z,99488.25
2022-12-03T23:18:52.350Z,99472.34
2022-12-03T23:21:53.824Z,99481.56
2022-12-03T23:24:55.291Z,99477.09
2022-12-03T23:27:56.756Z,99461.47
2022-12-03T23:30:58.646Z,99470.47
2022-12-03T23:34:00.482Z,99464.91
2022-12-03T23:37:01.971Z,99469.03
2022-12-03T23:40:03.926Z,99479.97
2022-12-03T23:43:05.352Z,99483.09
2022-12-03T23:46:12.674Z,99475.75
2022-12-03T23:49:14.164Z,99465.72
2022-12-03T23:52:15.586Z,99463.66
2022-12-03T23:55:17.280Z,99455.19
2022-12-03T23:58:18.733Z,99454.56
